Elizabeth Mc Allister — WDB7652 — position and weather

sailwx.info

Track history (hours):
 
Tides and Currents Weather Stations Pressure Air Temp Water Temp Dewpoint Dewpoint Depression Visibility Wind Speed Wind Dir Waves Ship Positions

Elizabeth Mc Allister

Owner: MC ALLISTER TOWING & TRANSPORTATION INC, NEW YORK, NY. More information available from US FCC via Universal Licensing System and Coast Guard Vessel Documentation Center.

Last reported at 2018-Apr-18 23:20 UTC. Time now 2018-Apr-24 07:07 UTC.
Position N 40°38' W 074°10'.

Length 31 m.

Type: Tug. MMSI: 362751376.

Date/timePositionNaut miles runAvg speedWind from/ knotsBaromVisibWave heightAir tempDewpointWater temp
2018-Apr-18 23:20N 40°38' W 074°10'0 0.1
2018-Apr-18 23:00N 40°38' W 074°10'1 1.9
2018-Apr-18 22:30N 40°39' W 074°09'2 2.6
2018-Apr-18 21:42N 40°39' W 074°06'0 2.4
2018-Apr-18 21:30N 40°39' W 074°05'3 5.0
2018-Apr-18 21:00N 40°39' W 074°09'2 4.3
2018-Apr-18 20:30N 40°39' W 074°06'0 0.0
2018-Apr-18 20:00N 40°39' W 074°06'3 6.2
2018-Apr-18 19:30N 40°38' W 074°10'0 0.0
2018-Apr-18 19:00N 40°38' W 074°10'0 0.0
2018-Apr-18 18:29N 40°38' W 074°10'0 0.0
2018-Apr-18 18:00N 40°38' W 074°10'0 0.0
2018-Apr-18 17:30N 40°38' W 074°10'0 0.0
2018-Apr-18 17:00N 40°38' W 074°10'2 1.8
2018-Apr-18 16:00N 40°38' W 074°12'2 3.3
2018-Apr-18 15:29N 40°36' W 074°12'1 2.4
2018-Apr-18 15:00N 40°37' W 074°12'1 2.7
2018-Apr-18 14:30N 40°39' W 074°11'1 2.4
2018-Apr-18 14:00N 40°38' W 074°10'0 0.0
2018-Apr-18 13:30N 40°38' W 074°10'2 3.8
2018-Apr-18 13:01N 40°39' W 074°07'3 6.7
2018-Apr-18 12:30N 40°38' W 074°03'3 6.8
2018-Apr-18 12:00N 40°39' W 074°07'2 3.4
2018-Apr-18 11:30N 40°40' W 074°08'1 1.7
2018-Apr-18 11:00N 40°41' W 074°09'1 1.4
2018-Apr-18 10:30N 40°40' W 074°08'0 0.9
2018-Apr-18 10:00N 40°40' W 074°09'2 3.0
2018-Apr-18 09:30N 40°39' W 074°08'0 0.0
2018-Apr-18 09:01N 40°38' W 074°08'0 0.0
2018-Apr-18 08:30N 40°38' W 074°08'2 3.4
2018-Apr-18 08:00N 40°38' W 074°10'0 0.1
2018-Apr-18 07:29N 40°38' W 074°10'0 0.0
2018-Apr-18 07:00N 40°38' W 074°10'0 0.0
2018-Apr-18 06:29N 40°38' W 074°10'0 0.0
2018-Apr-18 06:00N 40°38' W 074°10'0 0.0
2018-Apr-18 05:28N 40°38' W 074°10'0 0.0
2018-Apr-18 05:00N 40°38' W 074°10'0 0.0
2018-Apr-18 04:30N 40°38' W 074°10'0 0.0
2018-Apr-18 04:00N 40°38' W 074°10'0 0.0
2018-Apr-18 03:31N 40°38' W 074°10'0 0.0
2018-Apr-18 03:00N 40°38' W 074°10'0 0.0
2018-Apr-18 02:29N 40°38' W 074°10'0 0.0
2018-Apr-18 02:00N 40°38' W 074°10'0 0.0
2018-Apr-18 01:30N 40°38' W 074°10'0 0.0
2018-Apr-18 01:01N 40°38' W 074°10'0 0.0
2018-Apr-18 00:30N 40°38' W 074°10'0 0.0
2018-Apr-18 00:00N 40°38' W 074°10'0 0.0
2018-Apr-17 23:30N 40°38' W 074°10'0 0.0
2018-Apr-17 22:58N 40°38' W 074°10'0 0.1
2018-Apr-17 22:31N 40°38' W 074°10'0 0.0
2018-Apr-17 22:00N 40°38' W 074°10'0 0.0
2018-Apr-17 21:30N 40°38' W 074°10'0 0.0
2018-Apr-17 21:01N 40°38' W 074°10'0 0.0
2018-Apr-17 20:31N 40°38' W 074°10'0 0.0
2018-Apr-17 19:59N 40°38' W 074°10'0 0.0
2018-Apr-17 19:31N 40°38' W 074°10'0 0.0
2018-Apr-17 19:00N 40°38' W 074°10'0 0.0
2018-Apr-17 18:31N 40°38' W 074°10'0 0.0
2018-Apr-17 18:00N 40°38' W 074°10'0 0.0
2018-Apr-17 17:30N 40°38' W 074°10'0 0.0
2018-Apr-17 17:00N 40°38' W 074°10'0 0.0
2018-Apr-17 16:30N 40°38' W 074°10'0 0.0
2018-Apr-17 16:00N 40°38' W 074°10'0 0.0
2018-Apr-17 15:30N 40°38' W 074°10'0 0.0
2018-Apr-17 15:00N 40°38' W 074°10'0 0.0
2018-Apr-17 14:29N 40°38' W 074°10'0 0.0
2018-Apr-17 14:00N 40°38' W 074°10'0 0.0
2018-Apr-17 13:30N 40°38' W 074°10'0 0.0
2018-Apr-17 13:00N 40°38' W 074°10'0 0.0
2018-Apr-17 12:30N 40°38' W 074°10'0 0.0
2018-Apr-17 11:59N 40°38' W 074°10'0 0.0
2018-Apr-17 11:30N 40°38' W 074°10'0 0.0
2018-Apr-17 11:01N 40°38' W 074°10'0 0.0
2018-Apr-17 10:30N 40°38' W 074°10'0 0.0
2018-Apr-17 10:00N 40°38' W 074°10'0 0.0
2018-Apr-17 09:30N 40°38' W 074°10'0 0.0
2018-Apr-17 09:00N 40°38' W 074°10'0 0.0
2018-Apr-17 08:30N 40°38' W 074°10'0 0.0
2018-Apr-17 08:00N 40°38' W 074°10'0 0.0
2018-Apr-17 07:30N 40°38' W 074°10'0 0.0
2018-Apr-17 06:59N 40°38' W 074°10'0 0.0
2018-Apr-17 06:30N 40°38' W 074°10'0 0.0
2018-Apr-17 06:00N 40°38' W 074°10'0 0.0
2018-Apr-17 05:30N 40°38' W 074°10'0 0.0
2018-Apr-17 04:59N 40°38' W 074°10'0 0.0
2018-Apr-17 04:30N 40°38' W 074°10'0 0.0
2018-Apr-17 03:57N 40°38' W 074°10'0 0.0
2018-Apr-17 03:30N 40°38' W 074°10'0 0.0
2018-Apr-17 03:00N 40°38' W 074°10'0 0.0
2018-Apr-17 02:30N 40°38' W 074°10'0 0.0
2018-Apr-17 02:00N 40°38' W 074°10'0 0.0
2018-Apr-17 01:30N 40°38' W 074°10'0 0.0
2018-Apr-17 00:58N 40°38' W 074°10'0 0.0
2018-Apr-17 00:30N 40°38' W 074°10'0 0.0
2018-Apr-16 23:58N 40°38' W 074°10'0 0.0
2018-Apr-16 23:30N 40°38' W 074°10'0 0.0
2018-Apr-16 22:59N 40°38' W 074°10'0 0.0
2018-Apr-16 22:30N 40°38' W 074°10'0 0.0
2018-Apr-16 22:00N 40°38' W 074°10'0 0.0
2018-Apr-16 21:29N 40°38' W 074°10'0 0.0
2018-Apr-16 21:00N 40°38' W 074°10'0 0.0
2018-Apr-16 20:30N 40°38' W 074°10'0 0.0
2018-Apr-16 20:00N 40°38' W 074°10'0 0.0
2018-Apr-16 19:31N 40°38' W 074°10'0 0.0
2018-Apr-16 19:00N 40°38' W 074°10'0 0.0
2018-Apr-16 18:31N 40°38' W 074°10'0 0.0
2018-Apr-16 18:00N 40°38' W 074°10'0 0.0
2018-Apr-16 17:30N 40°38' W 074°10'0 0.0
2018-Apr-16 17:00N 40°38' W 074°10'0 0.0
2018-Apr-16 16:31N 40°38' W 074°10'0 0.0
2018-Apr-16 16:00N 40°38' W 074°10'0 0.0
2018-Apr-16 15:27N 40°38' W 074°10'0 0.0
2018-Apr-16 15:00N 40°38' W 074°10'0 0.0
2018-Apr-16 14:26N 40°38' W 074°10'0 0.0
2018-Apr-16 14:00N 40°38' W 074°10'0 0.0
2018-Apr-16 13:30N 40°38' W 074°10'0 0.0
2018-Apr-16 12:59N 40°38' W 074°10'0 0.0
2018-Apr-16 12:30N 40°38' W 074°10'0 0.0
2018-Apr-16 12:00N 40°38' W 074°10'0 0.0
2018-Apr-16 11:30N 40°38' W 074°10'0 0.0
2018-Apr-16 11:00N 40°38' W 074°10'0 0.0
2018-Apr-16 10:30N 40°38' W 074°10'0 0.0
2018-Apr-16 09:59N 40°38' W 074°10'0 0.0
2018-Apr-16 09:30N 40°38' W 074°10'0 0.0
2018-Apr-16 09:00N 40°38' W 074°10'0 0.0
2018-Apr-16 08:30N 40°38' W 074°10'0 0.0
2018-Apr-16 08:00N 40°38' W 074°10'0 0.0
2018-Apr-16 07:30N 40°38' W 074°10'0 0.0
2018-Apr-16 07:00N 40°38' W 074°10'0 0.0
2018-Apr-16 06:30N 40°38' W 074°10'0 0.0
2018-Apr-16 06:00N 40°38' W 074°10'0 0.0
2018-Apr-16 05:30N 40°38' W 074°10'0 0.0
2018-Apr-16 05:00N 40°38' W 074°10'0 0.0
2018-Apr-16 04:30N 40°38' W 074°10'0 0.0
2018-Apr-16 04:00N 40°38' W 074°10'0 0.0
2018-Apr-16 03:30N 40°38' W 074°10'0 0.0
2018-Apr-16 03:00N 40°38' W 074°10'0 0.0
2018-Apr-16 02:29N 40°38' W 074°10'0 0.0
2018-Apr-16 02:01N 40°38' W 074°10'0 0.0
2018-Apr-16 01:31N 40°38' W 074°10'0 0.0
2018-Apr-16 01:00N 40°38' W 074°10'0 0.0
2018-Apr-16 00:30N 40°38' W 074°10'0 0.0
2018-Apr-16 00:00N 40°38' W 074°10'0 0.0
2018-Apr-15 23:30N 40°38' W 074°10'0 0.0
2018-Apr-15 23:00N 40°38' W 074°10'0 0.0
2018-Apr-15 22:30N 40°38' W 074°10'0 0.0
2018-Apr-15 22:00N 40°38' W 074°10'0 0.0
2018-Apr-15 21:30N 40°38' W 074°10'0 0.0
2018-Apr-15 20:59N 40°38' W 074°10'0 0.0
2018-Apr-15 20:30N 40°38' W 074°10'0 0.0
2018-Apr-15 19:30N 40°38' W 074°10'0 0.0
2018-Apr-15 19:00N 40°38' W 074°10'0 0.0
2018-Apr-15 18:30N 40°38' W 074°10'0 0.0
2018-Apr-15 18:00N 40°38' W 074°10'0 0.0
2018-Apr-15 17:28N 40°38' W 074°10'0 0.0
2018-Apr-15 17:00N 40°38' W 074°10'0 0.0
2018-Apr-15 16:30N 40°38' W 074°10'0 0.0
2018-Apr-15 16:00N 40°38' W 074°10'0 0.0
2018-Apr-15 15:29N 40°38' W 074°10'0 0.0
2018-Apr-15 15:00N 40°38' W 074°10'0 0.0
2018-Apr-15 14:31N 40°38' W 074°10'0 0.0
2018-Apr-15 14:00N 40°38' W 074°10'0 0.0
2018-Apr-15 13:30N 40°38' W 074°10'0 0.0
2018-Apr-15 13:01N 40°38' W 074°10'0 0.0
2018-Apr-15 12:28N 40°38' W 074°10'0 0.0
2018-Apr-15 12:00N 40°38' W 074°10'0 0.0
2018-Apr-15 11:29N 40°38' W 074°10'0 0.0
2018-Apr-15 11:00N 40°38' W 074°10'0 0.0
2018-Apr-15 10:30N 40°38' W 074°10'0 0.0
2018-Apr-15 10:00N 40°38' W 074°10'0 0.0
2018-Apr-15 09:30N 40°38' W 074°10'0 0.0
2018-Apr-15 09:00N 40°38' W 074°10'0 0.0
2018-Apr-15 08:30N 40°38' W 074°10'0 0.0
2018-Apr-15 07:59N 40°38' W 074°10'0 0.0
2018-Apr-15 07:30N 40°38' W 074°10'0 0.0
2018-Apr-15 06:59N 40°38' W 074°10'0 0.0
2018-Apr-15 06:29N 40°38' W 074°10'0 0.0
2018-Apr-15 06:00N 40°38' W 074°10'0 0.0
2018-Apr-15 05:30N 40°38' W 074°10'0 0.0
2018-Apr-15 05:00N 40°38' W 074°10'0 0.0
2018-Apr-15 04:30N 40°38' W 074°10'0 0.0
2018-Apr-15 04:00N 40°38' W 074°10'0 0.0
2018-Apr-15 03:30N 40°38' W 074°10'0 0.0
2018-Apr-15 03:01N 40°38' W 074°10'0 0.0
2018-Apr-15 02:30N 40°38' W 074°10'0 0.0
2018-Apr-15 02:00N 40°38' W 074°10'0 0.0
2018-Apr-15 01:30N 40°38' W 074°10'0 0.0
2018-Apr-15 01:01N 40°38' W 074°10'0 0.0
2018-Apr-15 00:30N 40°38' W 074°10'0 0.0
2018-Apr-15 00:00N 40°38' W 074°10'0 0.0
2018-Apr-14 23:31N 40°38' W 074°10'0 0.0
2018-Apr-14 23:00N 40°38' W 074°10'0 0.0
2018-Apr-14 22:30N 40°38' W 074°10'0 0.0
2018-Apr-14 22:00N 40°38' W 074°10'0 0.0
2018-Apr-14 21:29N 40°38' W 074°10'0 0.0
2018-Apr-14 21:00N 40°38' W 074°10'0 0.0
2018-Apr-14 20:30N 40°38' W 074°10'0 0.0
2018-Apr-14 20:00N 40°38' W 074°10'0 0.0
2018-Apr-14 19:30N 40°38' W 074°10'0 0.0
2018-Apr-14 19:00N 40°38' W 074°10'0 0.0
2018-Apr-14 18:30N 40°38' W 074°10'0 0.0
2018-Apr-14 17:58N 40°38' W 074°10'0 0.0
2018-Apr-14 17:30N 40°38' W 074°10'0 0.0
2018-Apr-14 17:00N 40°38' W 074°10'0 0.0
2018-Apr-14 16:29N 40°38' W 074°10'0 0.0
2018-Apr-14 16:00N 40°38' W 074°10'0 0.0
2018-Apr-14 15:30N 40°38' W 074°10'0 0.0
2018-Apr-14 15:00N 40°38' W 074°10'0 0.0
2018-Apr-14 14:29N 40°38' W 074°10'0 0.0
2018-Apr-14 14:00N 40°38' W 074°10'0 0.0
2018-Apr-14 13:29N 40°38' W 074°10'0 0.0
2018-Apr-14 13:00N 40°38' W 074°10'0 0.0
2018-Apr-14 12:30N 40°38' W 074°10'0 0.0
2018-Apr-14 11:59N 40°38' W 074°10'0 0.0
2018-Apr-14 11:30N 40°38' W 074°10'0 0.0
2018-Apr-14 11:00N 40°38' W 074°10'0 0.0
2018-Apr-14 10:28N 40°38' W 074°10'0 0.0
2018-Apr-14 10:00N 40°38' W 074°10'0 0.0
2018-Apr-14 09:30N 40°38' W 074°10'0 0.0
2018-Apr-14 09:00N 40°38' W 074°10'0 0.0
2018-Apr-14 08:29N 40°38' W 074°10'0 0.0
2018-Apr-14 08:00N 40°38' W 074°10'0 0.0
2018-Apr-14 07:30N 40°38' W 074°10'0 0.0
2018-Apr-14 07:00N 40°38' W 074°10'0 0.0
2018-Apr-14 06:30N 40°38' W 074°10'0 0.0
2018-Apr-14 06:00N 40°38' W 074°10'0 0.0
2018-Apr-14 05:30N 40°38' W 074°10'0 0.0
2018-Apr-14 05:00N 40°38' W 074°10'0 0.0
2018-Apr-14 04:29N 40°38' W 074°10'0 0.0
2018-Apr-14 04:00N 40°38' W 074°10'0 0.0
2018-Apr-14 03:30N 40°38' W 074°10'0 0.0
2018-Apr-14 03:00N 40°38' W 074°10'0 0.0
2018-Apr-14 02:30N 40°38' W 074°10'0 0.0
2018-Apr-14 02:00N 40°38' W 074°10'0 0.0
2018-Apr-14 01:30N 40°38' W 074°10'0 0.0
2018-Apr-14 01:00N 40°38' W 074°10'0 0.0
2018-Apr-14 00:30N 40°38' W 074°10'0 0.0
2018-Apr-14 00:00N 40°38' W 074°10'0 0.0
2018-Apr-13 23:30N 40°38' W 074°10'0 0.0
2018-Apr-13 22:59N 40°38' W 074°10'0 0.0
2018-Apr-13 22:30N 40°38' W 074°10'0 0.0
2018-Apr-13 22:00N 40°38' W 074°10'0 0.0
2018-Apr-13 21:30N 40°38' W 074°10'0 0.0
2018-Apr-13 20:59N 40°38' W 074°10'0 0.0
2018-Apr-13 20:30N 40°38' W 074°10'0 0.0
2018-Apr-13 20:00N 40°38' W 074°10'0 0.0
2018-Apr-13 19:30N 40°38' W 074°10'0 0.0
2018-Apr-13 19:01N 40°38' W 074°10'0 0.0
2018-Apr-13 18:30N 40°38' W 074°10'0 0.0
2018-Apr-13 18:00N 40°38' W 074°10'0 0.0
2018-Apr-13 17:30N 40°38' W 074°10'0 0.0
2018-Apr-13 17:00N 40°38' W 074°10'0 0.0
2018-Apr-13 16:29N 40°38' W 074°10'0 0.0
2018-Apr-13 16:00N 40°38' W 074°10'0 0.0
2018-Apr-13 15:30N 40°38' W 074°10'0 0.0
2018-Apr-13 15:00N 40°38' W 074°10'0 0.0
2018-Apr-13 14:30N 40°38' W 074°10'0 0.0
2018-Apr-13 13:59N 40°38' W 074°10'0 0.0
2018-Apr-13 13:30N 40°38' W 074°10'0 0.0
2018-Apr-13 13:00N 40°38' W 074°10'0 0.0
2018-Apr-13 12:30N 40°38' W 074°10'0 0.0
2018-Apr-13 12:00N 40°38' W 074°10'0 0.0
2018-Apr-13 11:30N 40°38' W 074°10'0 0.0
2018-Apr-13 10:59N 40°38' W 074°10'0 0.0
2018-Apr-13 10:30N 40°38' W 074°10'0 0.0
2018-Apr-13 10:00N 40°38' W 074°10'0 0.0
2018-Apr-13 09:30N 40°38' W 074°10'0 0.0
2018-Apr-13 08:59N 40°38' W 074°10'0 0.0
2018-Apr-13 08:30N 40°38' W 074°10'0 0.0
2018-Apr-13 08:00N 40°38' W 074°10'0 0.0
2018-Apr-13 07:30N 40°38' W 074°10'0 0.0
2018-Apr-13 07:00N 40°38' W 074°10'0 0.0
2018-Apr-13 06:30N 40°38' W 074°10'0 0.0
2018-Apr-13 06:00N 40°38' W 074°10'0 0.0
2018-Apr-13 05:30N 40°38' W 074°10'0 0.0
2018-Apr-13 05:00N 40°38' W 074°10'0 0.0
2018-Apr-13 04:30N 40°38' W 074°10'0 0.0
2018-Apr-13 04:00N 40°38' W 074°10'0 0.0
2018-Apr-13 03:29N 40°38' W 074°10'0 0.0
2018-Apr-13 03:00N 40°38' W 074°10'0 0.0
2018-Apr-13 02:30N 40°38' W 074°10'0 0.0
2018-Apr-13 02:00N 40°38' W 074°10'0 0.0
2018-Apr-13 01:30N 40°38' W 074°10'0 0.0
2018-Apr-13 01:00N 40°38' W 074°10'0 0.0
2018-Apr-13 00:29N 40°38' W 074°10'0 0.0
2018-Apr-13 00:00N 40°38' W 074°10'0 0.0
2018-Apr-12 23:30N 40°38' W 074°10'0 0.0
2018-Apr-12 22:59N 40°38' W 074°10'0 0.0
2018-Apr-12 22:30N 40°38' W 074°10'0 0.0
2018-Apr-12 22:01N 40°38' W 074°10'0 0.0
2018-Apr-12 21:30N 40°38' W 074°10'0 0.0
2018-Apr-12 21:00N 40°38' W 074°10'0 0.0
2018-Apr-12 20:30N 40°38' W 074°10'0 0.0
2018-Apr-12 20:00N 40°38' W 074°10'0 0.0
2018-Apr-12 19:30N 40°38' W 074°10'0 0.0
2018-Apr-12 19:00N 40°38' W 074°10'0 0.0
2018-Apr-12 18:30N 40°38' W 074°10'0 0.0
2018-Apr-12 18:00N 40°38' W 074°10'0 0.0
2018-Apr-12 17:30N 40°38' W 074°10'0 0.0
2018-Apr-12 17:00N 40°38' W 074°10'0 0.0
2018-Apr-12 16:30N 40°38' W 074°10'0 0.0
2018-Apr-12 15:59N 40°38' W 074°10'0 0.0
2018-Apr-12 15:29N 40°38' W 074°10'0 0.0
2018-Apr-12 15:01N 40°38' W 074°10'0 0.0
2018-Apr-12 14:30N 40°38' W 074°10'0 0.0
2018-Apr-12 14:00N 40°38' W 074°10'0 0.0
2018-Apr-12 13:30N 40°38' W 074°10'0 0.0
2018-Apr-12 13:00N 40°38' W 074°10'0 0.0
2018-Apr-12 12:30N 40°38' W 074°10'0 0.0
2018-Apr-12 12:00N 40°38' W 074°10'0 0.0
2018-Apr-12 11:31N 40°38' W 074°10'0 0.0
2018-Apr-12 11:00N 40°38' W 074°10'0 0.0
2018-Apr-12 10:30N 40°38' W 074°10'0 0.0
2018-Apr-12 09:59N 40°38' W 074°10'0 0.0
2018-Apr-12 09:30N 40°38' W 074°10'0 0.0
2018-Apr-12 09:00N 40°38' W 074°10'0 0.0
2018-Apr-12 08:30N 40°38' W 074°10'0 0.0
2018-Apr-12 07:57N 40°38' W 074°10'0 0.0
2018-Apr-12 07:30N 40°38' W 074°10'0 0.0
2018-Apr-12 07:01N 40°38' W 074°10'0 0.0
2018-Apr-12 06:30N 40°38' W 074°10'0 0.0
2018-Apr-12 06:00N 40°38' W 074°10'0 0.0
2018-Apr-12 05:31N 40°38' W 074°10'0 0.0
2018-Apr-12 05:00N 40°38' W 074°10'0 0.0
2018-Apr-12 04:30N 40°38' W 074°10'0 0.0
2018-Apr-12 03:59N 40°38' W 074°10'0 0.0
2018-Apr-12 03:29N 40°38' W 074°10'0 0.0
2018-Apr-12 02:59N 40°38' W 074°10'0 0.0
2018-Apr-12 02:30N 40°38' W 074°10'0 0.0
2018-Apr-12 02:00N 40°38' W 074°10'0 0.0
2018-Apr-12 01:29N 40°38' W 074°10'0 0.0
2018-Apr-12 01:00N 40°38' W 074°10'0 0.0
2018-Apr-12 00:30N 40°38' W 074°10'0 0.0
2018-Apr-12 00:00N 40°38' W 074°10'4 7.4
2018-Apr-11 23:31N 40°39' W 074°05'5 9.7
2018-Apr-11 22:59N 40°34' W 074°02'510.8
2018-Apr-11 22:30N 40°29' W 074°03'1 2.6
2018-Apr-11 21:56N 40°28' W 074°03'1 1.3
2018-Apr-11 21:30N 40°27' W 074°03'0 0.1
2018-Apr-11 17:13N 40°27' W 074°03'0 0.0
2018-Apr-10 20:33N 40°27' W 074°03'0 4.3
2018-Apr-10 20:29N 40°27' W 074°03'0 0.5
2018-Apr-10 19:57N 40°27' W 074°03'0 0.8
2018-Apr-10 19:29N 40°28' W 074°03'0 0.8
2018-Apr-10 18:59N 40°27' W 074°03'0 0.0
2018-Apr-09 20:50N 40°27' W 074°03'0 0.2
2018-Apr-09 20:30N 40°27' W 074°03'0 0.0
2018-Apr-09 20:00N 40°27' W 074°03'0 0.0
2018-Apr-09 19:29N 40°27' W 074°03'0 0.1
2018-Apr-09 17:59N 40°27' W 074°03'0 0.0
2018-Apr-09 16:02N 40°27' W 074°03'0 0.2
2018-Apr-09 16:00N 40°27' W 074°03'  
Track history (hours):
 
Tides and Currents Weather Stations Pressure Air Temp Water Temp Dewpoint Dewpoint Depression Visibility Wind Speed Wind Dir Waves Ship Positions

Elizabeth Mc Allister

Owner: MC ALLISTER TOWING & TRANSPORTATION INC, NEW YORK, NY. More information available from US FCC via Universal Licensing System and Coast Guard Vessel Documentation Center.

Last reported at 2018-Apr-18 23:20 UTC. Time now 2018-Apr-24 07:07 UTC.
Position N 40°38' W 074°10'.

Length 31 m.

Type: Tug. MMSI: 362751376.

Date/timePositionNaut miles runAvg speedWind from/ knotsBaromVisibWave heightAir tempDewpointWater temp
2018-Apr-18 23:20N 40°38' W 074°10'0 0.1
2018-Apr-18 23:00N 40°38' W 074°10'1 1.9
2018-Apr-18 22:30N 40°39' W 074°09'2 2.6
2018-Apr-18 21:42N 40°39' W 074°06'0 2.4
2018-Apr-18 21:30N 40°39' W 074°05'3 5.0
2018-Apr-18 21:00N 40°39' W 074°09'2 4.3
2018-Apr-18 20:30N 40°39' W 074°06'0 0.0
2018-Apr-18 20:00N 40°39' W 074°06'3 6.2
2018-Apr-18 19:30N 40°38' W 074°10'0 0.0
2018-Apr-18 19:00N 40°38' W 074°10'0 0.0
2018-Apr-18 18:29N 40°38' W 074°10'0 0.0
2018-Apr-18 18:00N 40°38' W 074°10'0 0.0
2018-Apr-18 17:30N 40°38' W 074°10'0 0.0
2018-Apr-18 17:00N 40°38' W 074°10'2 1.8
2018-Apr-18 16:00N 40°38' W 074°12'2 3.3
2018-Apr-18 15:29N 40°36' W 074°12'1 2.4
2018-Apr-18 15:00N 40°37' W 074°12'1 2.7
2018-Apr-18 14:30N 40°39' W 074°11'1 2.4
2018-Apr-18 14:00N 40°38' W 074°10'0 0.0
2018-Apr-18 13:30N 40°38' W 074°10'2 3.8
2018-Apr-18 13:01N 40°39' W 074°07'3 6.7
2018-Apr-18 12:30N 40°38' W 074°03'3 6.8
2018-Apr-18 12:00N 40°39' W 074°07'2 3.4
2018-Apr-18 11:30N 40°40' W 074°08'1 1.7
2018-Apr-18 11:00N 40°41' W 074°09'1 1.4
2018-Apr-18 10:30N 40°40' W 074°08'0 0.9
2018-Apr-18 10:00N 40°40' W 074°09'2 3.0
2018-Apr-18 09:30N 40°39' W 074°08'0 0.0
2018-Apr-18 09:01N 40°38' W 074°08'0 0.0
2018-Apr-18 08:30N 40°38' W 074°08'2 3.4
2018-Apr-18 08:00N 40°38' W 074°10'0 0.1
2018-Apr-18 07:29N 40°38' W 074°10'0 0.0
2018-Apr-18 07:00N 40°38' W 074°10'0 0.0
2018-Apr-18 06:29N 40°38' W 074°10'0 0.0
2018-Apr-18 06:00N 40°38' W 074°10'0 0.0
2018-Apr-18 05:28N 40°38' W 074°10'0 0.0
2018-Apr-18 05:00N 40°38' W 074°10'0 0.0
2018-Apr-18 04:30N 40°38' W 074°10'0 0.0
2018-Apr-18 04:00N 40°38' W 074°10'0 0.0
2018-Apr-18 03:31N 40°38' W 074°10'0 0.0
2018-Apr-18 03:00N 40°38' W 074°10'0 0.0
2018-Apr-18 02:29N 40°38' W 074°10'0 0.0
2018-Apr-18 02:00N 40°38' W 074°10'0 0.0
2018-Apr-18 01:30N 40°38' W 074°10'0 0.0
2018-Apr-18 01:01N 40°38' W 074°10'0 0.0
2018-Apr-18 00:30N 40°38' W 074°10'0 0.0
2018-Apr-18 00:00N 40°38' W 074°10'0 0.0
2018-Apr-17 23:30N 40°38' W 074°10'0 0.0
2018-Apr-17 22:58N 40°38' W 074°10'0 0.1
2018-Apr-17 22:31N 40°38' W 074°10'0 0.0
2018-Apr-17 22:00N 40°38' W 074°10'0 0.0
2018-Apr-17 21:30N 40°38' W 074°10'0 0.0
2018-Apr-17 21:01N 40°38' W 074°10'0 0.0
2018-Apr-17 20:31N 40°38' W 074°10'0 0.0
2018-Apr-17 19:59N 40°38' W 074°10'0 0.0
2018-Apr-17 19:31N 40°38' W 074°10'0 0.0
2018-Apr-17 19:00N 40°38' W 074°10'0 0.0
2018-Apr-17 18:31N 40°38' W 074°10'0 0.0
2018-Apr-17 18:00N 40°38' W 074°10'0 0.0
2018-Apr-17 17:30N 40°38' W 074°10'0 0.0
2018-Apr-17 17:00N 40°38' W 074°10'0 0.0
2018-Apr-17 16:30N 40°38' W 074°10'0 0.0
2018-Apr-17 16:00N 40°38' W 074°10'0 0.0
2018-Apr-17 15:30N 40°38' W 074°10'0 0.0
2018-Apr-17 15:00N 40°38' W 074°10'0 0.0
2018-Apr-17 14:29N 40°38' W 074°10'0 0.0
2018-Apr-17 14:00N 40°38' W 074°10'0 0.0
2018-Apr-17 13:30N 40°38' W 074°10'0 0.0
2018-Apr-17 13:00N 40°38' W 074°10'0 0.0
2018-Apr-17 12:30N 40°38' W 074°10'0 0.0
2018-Apr-17 11:59N 40°38' W 074°10'0 0.0
2018-Apr-17 11:30N 40°38' W 074°10'0 0.0
2018-Apr-17 11:01N 40°38' W 074°10'0 0.0
2018-Apr-17 10:30N 40°38' W 074°10'0 0.0
2018-Apr-17 10:00N 40°38' W 074°10'0 0.0
2018-Apr-17 09:30N 40°38' W 074°10'0 0.0
2018-Apr-17 09:00N 40°38' W 074°10'0 0.0
2018-Apr-17 08:30N 40°38' W 074°10'0 0.0
2018-Apr-17 08:00N 40°38' W 074°10'0 0.0
2018-Apr-17 07:30N 40°38' W 074°10'0 0.0
2018-Apr-17 06:59N 40°38' W 074°10'0 0.0
2018-Apr-17 06:30N 40°38' W 074°10'0 0.0
2018-Apr-17 06:00N 40°38' W 074°10'0 0.0
2018-Apr-17 05:30N 40°38' W 074°10'0 0.0
2018-Apr-17 04:59N 40°38' W 074°10'0 0.0
2018-Apr-17 04:30N 40°38' W 074°10'0 0.0
2018-Apr-17 03:57N 40°38' W 074°10'0 0.0
2018-Apr-17 03:30N 40°38' W 074°10'0 0.0
2018-Apr-17 03:00N 40°38' W 074°10'0 0.0
2018-Apr-17 02:30N 40°38' W 074°10'0 0.0
2018-Apr-17 02:00N 40°38' W 074°10'0 0.0
2018-Apr-17 01:30N 40°38' W 074°10'0 0.0
2018-Apr-17 00:58N 40°38' W 074°10'0 0.0
2018-Apr-17 00:30N 40°38' W 074°10'0 0.0
2018-Apr-16 23:58N 40°38' W 074°10'0 0.0
2018-Apr-16 23:30N 40°38' W 074°10'0 0.0
2018-Apr-16 22:59N 40°38' W 074°10'0 0.0
2018-Apr-16 22:30N 40°38' W 074°10'0 0.0
2018-Apr-16 22:00N 40°38' W 074°10'0 0.0
2018-Apr-16 21:29N 40°38' W 074°10'0 0.0
2018-Apr-16 21:00N 40°38' W 074°10'0 0.0
2018-Apr-16 20:30N 40°38' W 074°10'0 0.0
2018-Apr-16 20:00N 40°38' W 074°10'0 0.0
2018-Apr-16 19:31N 40°38' W 074°10'0 0.0
2018-Apr-16 19:00N 40°38' W 074°10'0 0.0
2018-Apr-16 18:31N 40°38' W 074°10'0 0.0
2018-Apr-16 18:00N 40°38' W 074°10'0 0.0
2018-Apr-16 17:30N 40°38' W 074°10'0 0.0
2018-Apr-16 17:00N 40°38' W 074°10'0 0.0
2018-Apr-16 16:31N 40°38' W 074°10'0 0.0
2018-Apr-16 16:00N 40°38' W 074°10'0 0.0
2018-Apr-16 15:27N 40°38' W 074°10'0 0.0
2018-Apr-16 15:00N 40°38' W 074°10'0 0.0
2018-Apr-16 14:26N 40°38' W 074°10'0 0.0
2018-Apr-16 14:00N 40°38' W 074°10'0 0.0
2018-Apr-16 13:30N 40°38' W 074°10'0 0.0
2018-Apr-16 12:59N 40°38' W 074°10'0 0.0
2018-Apr-16 12:30N 40°38' W 074°10'0 0.0
2018-Apr-16 12:00N 40°38' W 074°10'0 0.0
2018-Apr-16 11:30N 40°38' W 074°10'0 0.0
2018-Apr-16 11:00N 40°38' W 074°10'0 0.0
2018-Apr-16 10:30N 40°38' W 074°10'0 0.0
2018-Apr-16 09:59N 40°38' W 074°10'0 0.0
2018-Apr-16 09:30N 40°38' W 074°10'0 0.0
2018-Apr-16 09:00N 40°38' W 074°10'0 0.0
2018-Apr-16 08:30N 40°38' W 074°10'0 0.0
2018-Apr-16 08:00N 40°38' W 074°10'0 0.0
2018-Apr-16 07:30N 40°38' W 074°10'0 0.0
2018-Apr-16 07:00N 40°38' W 074°10'0 0.0
2018-Apr-16 06:30N 40°38' W 074°10'0 0.0
2018-Apr-16 06:00N 40°38' W 074°10'0 0.0
2018-Apr-16 05:30N 40°38' W 074°10'0 0.0
2018-Apr-16 05:00N 40°38' W 074°10'0 0.0
2018-Apr-16 04:30N 40°38' W 074°10'0 0.0
2018-Apr-16 04:00N 40°38' W 074°10'0 0.0
2018-Apr-16 03:30N 40°38' W 074°10'0 0.0
2018-Apr-16 03:00N 40°38' W 074°10'0 0.0
2018-Apr-16 02:29N 40°38' W 074°10'0 0.0
2018-Apr-16 02:01N 40°38' W 074°10'0 0.0
2018-Apr-16 01:31N 40°38' W 074°10'0 0.0
2018-Apr-16 01:00N 40°38' W 074°10'0 0.0
2018-Apr-16 00:30N 40°38' W 074°10'0 0.0
2018-Apr-16 00:00N 40°38' W 074°10'0 0.0
2018-Apr-15 23:30N 40°38' W 074°10'0 0.0
2018-Apr-15 23:00N 40°38' W 074°10'0 0.0
2018-Apr-15 22:30N 40°38' W 074°10'0 0.0
2018-Apr-15 22:00N 40°38' W 074°10'0 0.0
2018-Apr-15 21:30N 40°38' W 074°10'0 0.0
2018-Apr-15 20:59N 40°38' W 074°10'0 0.0
2018-Apr-15 20:30N 40°38' W 074°10'0 0.0
2018-Apr-15 19:30N 40°38' W 074°10'0 0.0
2018-Apr-15 19:00N 40°38' W 074°10'0 0.0
2018-Apr-15 18:30N 40°38' W 074°10'0 0.0
2018-Apr-15 18:00N 40°38' W 074°10'0 0.0
2018-Apr-15 17:28N 40°38' W 074°10'0 0.0
2018-Apr-15 17:00N 40°38' W 074°10'0 0.0
2018-Apr-15 16:30N 40°38' W 074°10'0 0.0
2018-Apr-15 16:00N 40°38' W 074°10'0 0.0
2018-Apr-15 15:29N 40°38' W 074°10'0 0.0
2018-Apr-15 15:00N 40°38' W 074°10'0 0.0
2018-Apr-15 14:31N 40°38' W 074°10'0 0.0
2018-Apr-15 14:00N 40°38' W 074°10'0 0.0
2018-Apr-15 13:30N 40°38' W 074°10'0 0.0
2018-Apr-15 13:01N 40°38' W 074°10'0 0.0
2018-Apr-15 12:28N 40°38' W 074°10'0 0.0
2018-Apr-15 12:00N 40°38' W 074°10'0 0.0
2018-Apr-15 11:29N 40°38' W 074°10'0 0.0
2018-Apr-15 11:00N 40°38' W 074°10'0 0.0
2018-Apr-15 10:30N 40°38' W 074°10'0 0.0
2018-Apr-15 10:00N 40°38' W 074°10'0 0.0
2018-Apr-15 09:30N 40°38' W 074°10'0 0.0
2018-Apr-15 09:00N 40°38' W 074°10'0 0.0
2018-Apr-15 08:30N 40°38' W 074°10'0 0.0
2018-Apr-15 07:59N 40°38' W 074°10'0 0.0
2018-Apr-15 07:30N 40°38' W 074°10'0 0.0
2018-Apr-15 06:59N 40°38' W 074°10'0 0.0
2018-Apr-15 06:29N 40°38' W 074°10'0 0.0
2018-Apr-15 06:00N 40°38' W 074°10'0 0.0
2018-Apr-15 05:30N 40°38' W 074°10'0 0.0
2018-Apr-15 05:00N 40°38' W 074°10'0 0.0
2018-Apr-15 04:30N 40°38' W 074°10'0 0.0
2018-Apr-15 04:00N 40°38' W 074°10'0 0.0
2018-Apr-15 03:30N 40°38' W 074°10'0 0.0
2018-Apr-15 03:01N 40°38' W 074°10'0 0.0
2018-Apr-15 02:30N 40°38' W 074°10'0 0.0
2018-Apr-15 02:00N 40°38' W 074°10'0 0.0
2018-Apr-15 01:30N 40°38' W 074°10'0 0.0
2018-Apr-15 01:01N 40°38' W 074°10'0 0.0
2018-Apr-15 00:30N 40°38' W 074°10'0 0.0
2018-Apr-15 00:00N 40°38' W 074°10'0 0.0
2018-Apr-14 23:31N 40°38' W 074°10'0 0.0
2018-Apr-14 23:00N 40°38' W 074°10'0 0.0
2018-Apr-14 22:30N 40°38' W 074°10'0 0.0
2018-Apr-14 22:00N 40°38' W 074°10'0 0.0
2018-Apr-14 21:29N 40°38' W 074°10'0 0.0
2018-Apr-14 21:00N 40°38' W 074°10'0 0.0
2018-Apr-14 20:30N 40°38' W 074°10'0 0.0
2018-Apr-14 20:00N 40°38' W 074°10'0 0.0
2018-Apr-14 19:30N 40°38' W 074°10'0 0.0
2018-Apr-14 19:00N 40°38' W 074°10'0 0.0
2018-Apr-14 18:30N 40°38' W 074°10'0 0.0
2018-Apr-14 17:58N 40°38' W 074°10'0 0.0
2018-Apr-14 17:30N 40°38' W 074°10'0 0.0
2018-Apr-14 17:00N 40°38' W 074°10'0 0.0
2018-Apr-14 16:29N 40°38' W 074°10'0 0.0
2018-Apr-14 16:00N 40°38' W 074°10'0 0.0
2018-Apr-14 15:30N 40°38' W 074°10'0 0.0
2018-Apr-14 15:00N 40°38' W 074°10'0 0.0
2018-Apr-14 14:29N 40°38' W 074°10'0 0.0
2018-Apr-14 14:00N 40°38' W 074°10'0 0.0
2018-Apr-14 13:29N 40°38' W 074°10'0 0.0
2018-Apr-14 13:00N 40°38' W 074°10'0 0.0
2018-Apr-14 12:30N 40°38' W 074°10'0 0.0
2018-Apr-14 11:59N 40°38' W 074°10'0 0.0
2018-Apr-14 11:30N 40°38' W 074°10'0 0.0
2018-Apr-14 11:00N 40°38' W 074°10'0 0.0
2018-Apr-14 10:28N 40°38' W 074°10'0 0.0
2018-Apr-14 10:00N 40°38' W 074°10'0 0.0
2018-Apr-14 09:30N 40°38' W 074°10'0 0.0
2018-Apr-14 09:00N 40°38' W 074°10'0 0.0
2018-Apr-14 08:29N 40°38' W 074°10'0 0.0
2018-Apr-14 08:00N 40°38' W 074°10'0 0.0
2018-Apr-14 07:30N 40°38' W 074°10'0 0.0
2018-Apr-14 07:00N 40°38' W 074°10'0 0.0
2018-Apr-14 06:30N 40°38' W 074°10'0 0.0
2018-Apr-14 06:00N 40°38' W 074°10'0 0.0
2018-Apr-14 05:30N 40°38' W 074°10'0 0.0
2018-Apr-14 05:00N 40°38' W 074°10'0 0.0
2018-Apr-14 04:29N 40°38' W 074°10'0 0.0
2018-Apr-14 04:00N 40°38' W 074°10'0 0.0
2018-Apr-14 03:30N 40°38' W 074°10'0 0.0
2018-Apr-14 03:00N 40°38' W 074°10'0 0.0
2018-Apr-14 02:30N 40°38' W 074°10'0 0.0
2018-Apr-14 02:00N 40°38' W 074°10'0 0.0
2018-Apr-14 01:30N 40°38' W 074°10'0 0.0
2018-Apr-14 01:00N 40°38' W 074°10'0 0.0
2018-Apr-14 00:30N 40°38' W 074°10'0 0.0
2018-Apr-14 00:00N 40°38' W 074°10'0 0.0
2018-Apr-13 23:30N 40°38' W 074°10'0 0.0
2018-Apr-13 22:59N 40°38' W 074°10'0 0.0
2018-Apr-13 22:30N 40°38' W 074°10'0 0.0
2018-Apr-13 22:00N 40°38' W 074°10'0 0.0
2018-Apr-13 21:30N 40°38' W 074°10'0 0.0
2018-Apr-13 20:59N 40°38' W 074°10'0 0.0
2018-Apr-13 20:30N 40°38' W 074°10'0 0.0
2018-Apr-13 20:00N 40°38' W 074°10'0 0.0
2018-Apr-13 19:30N 40°38' W 074°10'0 0.0
2018-Apr-13 19:01N 40°38' W 074°10'0 0.0
2018-Apr-13 18:30N 40°38' W 074°10'0 0.0
2018-Apr-13 18:00N 40°38' W 074°10'0 0.0
2018-Apr-13 17:30N 40°38' W 074°10'0 0.0
2018-Apr-13 17:00N 40°38' W 074°10'0 0.0
2018-Apr-13 16:29N 40°38' W 074°10'0 0.0
2018-Apr-13 16:00N 40°38' W 074°10'0 0.0
2018-Apr-13 15:30N 40°38' W 074°10'0 0.0
2018-Apr-13 15:00N 40°38' W 074°10'0 0.0
2018-Apr-13 14:30N 40°38' W 074°10'0 0.0
2018-Apr-13 13:59N 40°38' W 074°10'0 0.0
2018-Apr-13 13:30N 40°38' W 074°10'0 0.0
2018-Apr-13 13:00N 40°38' W 074°10'0 0.0
2018-Apr-13 12:30N 40°38' W 074°10'0 0.0
2018-Apr-13 12:00N 40°38' W 074°10'0 0.0
2018-Apr-13 11:30N 40°38' W 074°10'0 0.0
2018-Apr-13 10:59N 40°38' W 074°10'0 0.0
2018-Apr-13 10:30N 40°38' W 074°10'0 0.0
2018-Apr-13 10:00N 40°38' W 074°10'0 0.0
2018-Apr-13 09:30N 40°38' W 074°10'0 0.0
2018-Apr-13 08:59N 40°38' W 074°10'0 0.0
2018-Apr-13 08:30N 40°38' W 074°10'0 0.0
2018-Apr-13 08:00N 40°38' W 074°10'0 0.0
2018-Apr-13 07:30N 40°38' W 074°10'0 0.0
2018-Apr-13 07:00N 40°38' W 074°10'0 0.0
2018-Apr-13 06:30N 40°38' W 074°10'0 0.0
2018-Apr-13 06:00N 40°38' W 074°10'0 0.0
2018-Apr-13 05:30N 40°38' W 074°10'0 0.0
2018-Apr-13 05:00N 40°38' W 074°10'0 0.0
2018-Apr-13 04:30N 40°38' W 074°10'0 0.0
2018-Apr-13 04:00N 40°38' W 074°10'0 0.0
2018-Apr-13 03:29N 40°38' W 074°10'0 0.0
2018-Apr-13 03:00N 40°38' W 074°10'0 0.0
2018-Apr-13 02:30N 40°38' W 074°10'0 0.0
2018-Apr-13 02:00N 40°38' W 074°10'0 0.0
2018-Apr-13 01:30N 40°38' W 074°10'0 0.0
2018-Apr-13 01:00N 40°38' W 074°10'0 0.0
2018-Apr-13 00:29N 40°38' W 074°10'0 0.0
2018-Apr-13 00:00N 40°38' W 074°10'0 0.0
2018-Apr-12 23:30N 40°38' W 074°10'0 0.0
2018-Apr-12 22:59N 40°38' W 074°10'0 0.0
2018-Apr-12 22:30N 40°38' W 074°10'0 0.0
2018-Apr-12 22:01N 40°38' W 074°10'0 0.0
2018-Apr-12 21:30N 40°38' W 074°10'0 0.0
2018-Apr-12 21:00N 40°38' W 074°10'0 0.0
2018-Apr-12 20:30N 40°38' W 074°10'0 0.0
2018-Apr-12 20:00N 40°38' W 074°10'0 0.0
2018-Apr-12 19:30N 40°38' W 074°10'0 0.0
2018-Apr-12 19:00N 40°38' W 074°10'0 0.0
2018-Apr-12 18:30N 40°38' W 074°10'0 0.0
2018-Apr-12 18:00N 40°38' W 074°10'0 0.0
2018-Apr-12 17:30N 40°38' W 074°10'0 0.0
2018-Apr-12 17:00N 40°38' W 074°10'0 0.0
2018-Apr-12 16:30N 40°38' W 074°10'0 0.0
2018-Apr-12 15:59N 40°38' W 074°10'0 0.0
2018-Apr-12 15:29N 40°38' W 074°10'0 0.0
2018-Apr-12 15:01N 40°38' W 074°10'0 0.0
2018-Apr-12 14:30N 40°38' W 074°10'0 0.0
2018-Apr-12 14:00N 40°38' W 074°10'0 0.0
2018-Apr-12 13:30N 40°38' W 074°10'0 0.0
2018-Apr-12 13:00N 40°38' W 074°10'0 0.0
2018-Apr-12 12:30N 40°38' W 074°10'0 0.0
2018-Apr-12 12:00N 40°38' W 074°10'0 0.0
2018-Apr-12 11:31N 40°38' W 074°10'0 0.0
2018-Apr-12 11:00N 40°38' W 074°10'0 0.0
2018-Apr-12 10:30N 40°38' W 074°10'0 0.0
2018-Apr-12 09:59N 40°38' W 074°10'0 0.0
2018-Apr-12 09:30N 40°38' W 074°10'0 0.0
2018-Apr-12 09:00N 40°38' W 074°10'0 0.0
2018-Apr-12 08:30N 40°38' W 074°10'0 0.0
2018-Apr-12 07:57N 40°38' W 074°10'0 0.0
2018-Apr-12 07:30N 40°38' W 074°10'0 0.0
2018-Apr-12 07:01N 40°38' W 074°10'0 0.0
2018-Apr-12 06:30N 40°38' W 074°10'0 0.0
2018-Apr-12 06:00N 40°38' W 074°10'0 0.0
2018-Apr-12 05:31N 40°38' W 074°10'0 0.0
2018-Apr-12 05:00N 40°38' W 074°10'0 0.0
2018-Apr-12 04:30N 40°38' W 074°10'0 0.0
2018-Apr-12 03:59N 40°38' W 074°10'0 0.0
2018-Apr-12 03:29N 40°38' W 074°10'0 0.0
2018-Apr-12 02:59N 40°38' W 074°10'0 0.0
2018-Apr-12 02:30N 40°38' W 074°10'0 0.0
2018-Apr-12 02:00N 40°38' W 074°10'0 0.0
2018-Apr-12 01:29N 40°38' W 074°10'0 0.0
2018-Apr-12 01:00N 40°38' W 074°10'0 0.0
2018-Apr-12 00:30N 40°38' W 074°10'0 0.0
2018-Apr-12 00:00N 40°38' W 074°10'4 7.4
2018-Apr-11 23:31N 40°39' W 074°05'5 9.7
2018-Apr-11 22:59N 40°34' W 074°02'510.8
2018-Apr-11 22:30N 40°29' W 074°03'1 2.6
2018-Apr-11 21:56N 40°28' W 074°03'1 1.3
2018-Apr-11 21:30N 40°27' W 074°03'0 0.1
2018-Apr-11 17:13N 40°27' W 074°03'0 0.0
2018-Apr-10 20:33N 40°27' W 074°03'0 4.3
2018-Apr-10 20:29N 40°27' W 074°03'0 0.5
2018-Apr-10 19:57N 40°27' W 074°03'0 0.8
2018-Apr-10 19:29N 40°28' W 074°03'0 0.8
2018-Apr-10 18:59N 40°27' W 074°03'0 0.0
2018-Apr-09 20:50N 40°27' W 074°03'0 0.2
2018-Apr-09 20:30N 40°27' W 074°03'0 0.0
2018-Apr-09 20:00N 40°27' W 074°03'0 0.0
2018-Apr-09 19:29N 40°27' W 074°03'0 0.1
2018-Apr-09 17:59N 40°27' W 074°03'0 0.0
2018-Apr-09 16:02N 40°27' W 074°03'0 0.2
2018-Apr-09 16:00N 40°27' W 074°03'  

Dump ship's entire track history